createdAt,value
2019-04-01T00:00:50.182Z,25.08
2019-04-01T00:03:53.734Z,25.08
2019-04-01T00:06:58.261Z,25.07
2019-04-01T00:10:02.775Z,25.07
2019-04-01T00:13:06.284Z,25.07
2019-04-01T00:16:10.804Z,25.05
2019-04-01T00:19:14.251Z,25.05
2019-04-01T00:22:17.699Z,25.05
2019-04-01T00:25:21.198Z,25.03
2019-04-01T00:28:24.654Z,25.03
2019-04-01T00:31:28.101Z,25.02
2019-04-01T00:34:31.588Z,25.02
2019-04-01T00:37:35.033Z,25.00
2019-04-01T00:40:38.611Z,25.01
2019-04-01T00:43:54.697Z,25.00
2019-04-01T00:46:58.223Z,24.99
2019-04-01T00:50:01.723Z,24.99
2019-04-01T00:53:05.202Z,24.98
2019-04-01T00:56:08.854Z,24.97
2019-04-01T00:59:12.287Z,24.97
2019-04-01T01:02:16.823Z,24.97
2019-04-01T01:05:20.568Z,24.95
2019-04-01T01:08:24.035Z,24.94
2019-04-01T01:11:27.563Z,24.94
2019-04-01T01:14:31.052Z,24.95
2019-04-01T01:17:34.561Z,24.94
2019-04-01T01:20:38.037Z,24.94
2019-04-01T01:23:41.560Z,24.94
2019-04-01T01:26:46.068Z,24.92
2019-04-01T01:29:49.497Z,24.91
2019-04-01T01:32:53.007Z,24.91
2019-04-01T01:35:56.457Z,24.91
2019-04-01T01:39:00.084Z,24.90
2019-04-01T01:42:03.602Z,24.89
2019-04-01T01:45:07.045Z,24.89
2019-04-01T01:48:10.496Z,24.89
2019-04-01T01:51:14.083Z,24.87
2019-04-01T01:54:17.573Z,24.87
2019-04-01T01:57:21.077Z,24.87
2019-04-01T02:00:26.278Z,24.87
2019-04-01T02:03:30.735Z,24.86
2019-04-01T02:06:35.254Z,24.86
2019-04-01T02:09:38.758Z,24.85
2019-04-01T02:12:43.303Z,24.84
2019-04-01T02:15:46.783Z,24.84
2019-04-01T02:18:50.290Z,24.84
2019-04-01T02:21:53.802Z,24.83
2019-04-01T02:24:58.496Z,24.84
2019-04-01T02:28:01.923Z,24.82
2019-04-01T02:31:05.410Z,24.82
2019-04-01T02:34:08.946Z,24.81
2019-04-01T02:37:12.469Z,24.81
2019-04-01T02:40:15.920Z,24.80
2019-04-01T02:43:19.467Z,24.80
2019-04-01T02:46:23.041Z,24.79
2019-04-01T02:49:27.544Z,24.79
2019-04-01T02:52:30.993Z,24.79
2019-04-01T02:55:34.552Z,24.78
2019-04-01T02:58:38.068Z,24.77
2019-04-01T03:01:41.566Z,24.77
2019-04-01T03:04:45.061Z,24.76
2019-04-01T03:07:49.585Z,24.76
2019-04-01T03:10:55.116Z,24.75
2019-04-01T03:13:58.634Z,24.75
2019-04-01T03:17:02.063Z,24.74
2019-04-01T03:20:05.800Z,24.74
2019-04-01T03:23:10.276Z,24.74
2019-04-01T03:26:13.791Z,24.74
2019-04-01T03:29:17.262Z,24.72
2019-04-01T03:32:20.803Z,24.73
2019-04-01T03:35:24.373Z,24.73
2019-04-01T03:38:28.314Z,24.73
2019-04-01T03:41:33.030Z,24.72
2019-04-01T03:44:37.530Z,24.72
2019-04-01T03:47:41.248Z,24.72
2019-04-01T03:50:44.832Z,24.70
2019-04-01T03:53:48.442Z,24.69
2019-04-01T03:56:51.955Z,24.69
2019-04-01T03:59:55.439Z,24.70
2019-04-01T04:02:58.942Z,24.69
2019-04-01T04:06:02.436Z,24.68
2019-04-01T04:09:06.541Z,24.68
2019-04-01T04:12:10.211Z,24.67
2019-04-01T04:15:13.674Z,24.68
2019-04-01T04:18:17.262Z,24.67
2019-04-01T04:21:23.781Z,24.67
2019-04-01T04:24:26.111Z,24.65
2019-04-01T04:27:29.614Z,24.65
2019-04-01T04:30:34.143Z,24.65
2019-04-01T04:33:37.662Z,24.64
2019-04-01T04:36:41.097Z,24.65
2019-04-01T04:39:44.550Z,24.64
2019-04-01T04:42:48.095Z,24.63
2019-04-01T04:45:51.556Z,24.63
2019-04-01T04:48:55.157Z,24.62
2019-04-01T04:51:58.646Z,24.63
2019-04-01T04:55:02.163Z,24.61
2019-04-01T04:58:05.651Z,24.62
2019-04-01T05:01:09.138Z,24.60
2019-04-01T05:04:12.661Z,24.61
2019-04-01T05:07:16.263Z,24.61
2019-04-01T05:10:19.849Z,24.60
2019-04-01T05:13:24.403Z,24.60
2019-04-01T05:16:33.824Z,24.59
2019-04-01T05:19:37.267Z,24.60
2019-04-01T05:22:40.781Z,24.58
2019-04-01T05:25:44.221Z,24.59
2019-04-01T05:28:47.742Z,24.58
2019-04-01T05:31:51.150Z,24.56
2019-04-01T05:34:55.759Z,24.56
2019-04-01T05:37:59.244Z,24.56
2019-04-01T05:41:02.844Z,24.56
2019-04-01T05:44:06.366Z,24.56
2019-04-01T05:47:09.869Z,24.55
2019-04-01T05:50:13.366Z,24.55
2019-04-01T05:53:16.869Z,24.54
2019-04-01T05:56:20.345Z,24.55
2019-04-01T05:59:29.698Z,24.54
2019-04-01T06:02:33.323Z,24.52
2019-04-01T06:05:37.916Z,24.53
2019-04-01T06:08:41.525Z,24.52
2019-04-01T06:11:45.023Z,24.52
2019-04-01T06:14:51.594Z,24.51
2019-04-01T06:17:55.115Z,24.52
2019-04-01T06:20:58.613Z,24.51
2019-04-01T06:24:04.355Z,24.50
2019-04-01T06:27:07.852Z,24.50
2019-04-01T06:30:11.365Z,24.50
2019-04-01T06:33:14.810Z,24.49
2019-04-01T06:36:18.238Z,24.48
2019-04-01T06:39:22.681Z,24.48
2019-04-01T06:42:27.188Z,24.47
2019-04-01T06:45:31.620Z,24.47
2019-04-01T06:48:35.250Z,24.47
2019-04-01T06:51:38.734Z,24.46
2019-04-01T06:54:42.241Z,24.46
2019-04-01T06:57:46.752Z,24.44
2019-04-01T07:00:50.252Z,24.45
2019-04-01T07:03:54.782Z,24.45
2019-04-01T07:06:58.277Z,24.45
2019-04-01T07:10:02.112Z,24.45
2019-04-01T07:13:05.593Z,24.45
2019-04-01T07:16:15.967Z,24.44
2019-04-01T07:19:14.321Z,24.45
2019-04-01T07:22:17.826Z,24.43
2019-04-01T07:25:21.389Z,24.45
2019-04-01T07:28:24.847Z,24.44
2019-04-01T07:31:28.431Z,24.44
2019-04-01T07:34:32.304Z,24.44
2019-04-01T07:37:35.751Z,24.44
2019-04-01T07:40:39.281Z,24.43
2019-04-01T07:43:42.905Z,24.44
2019-04-01T07:46:46.470Z,24.45
2019-04-01T07:49:50.026Z,24.44
2019-04-01T07:52:55.407Z,24.43
2019-04-01T07:56:02.361Z,24.43
2019-04-01T07:59:04.163Z,24.42
2019-04-01T08:02:08.677Z,24.42
2019-04-01T08:05:12.193Z,24.43
2019-04-01T08:08:15.691Z,24.43
2019-04-01T08:11:19.210Z,24.43
2019-04-01T08:14:22.686Z,24.43
2019-04-01T08:17:26.278Z,24.44
2019-04-01T08:20:29.876Z,24.43
2019-04-01T08:23:34.407Z,24.43
2019-04-01T08:26:39.964Z,24.44
2019-04-01T08:29:44.590Z,24.43
2019-04-01T08:32:48.194Z,24.43
2019-04-01T08:35:51.809Z,24.39
2019-04-01T08:38:56.417Z,24.44
2019-04-01T08:41:59.954Z,24.44
2019-04-01T08:45:03.761Z,24.43
2019-04-01T08:48:07.329Z,24.41
2019-04-01T08:51:10.858Z,24.42
2019-04-01T08:54:14.342Z,24.42
2019-04-01T08:57:17.925Z,24.42
2019-04-01T09:00:21.666Z,24.43
2019-04-01T09:03:25.275Z,24.43
2019-04-01T09:06:31.297Z,24.43
2019-04-01T09:09:34.102Z,24.43
2019-04-01T09:12:37.555Z,24.43
2019-04-01T09:15:41.091Z,24.42
2019-04-01T09:18:45.610Z,24.43
2019-04-01T09:21:49.262Z,24.44
2019-04-01T09:24:53.213Z,24.45
2019-04-01T09:27:56.764Z,24.44
2019-04-01T09:31:01.422Z,24.46
2019-04-01T09:34:04.971Z,24.46
2019-04-01T09:37:09.509Z,24.46
2019-04-01T09:40:14.639Z,24.47
2019-04-01T09:43:18.190Z,24.46
2019-04-01T09:46:22.683Z,24.48
2019-04-01T09:49:26.223Z,24.48
2019-04-01T09:52:29.883Z,24.49
2019-04-01T09:55:33.631Z,24.49
2019-04-01T09:58:37.265Z,24.50
2019-04-01T10:01:40.780Z,24.52
2019-04-01T10:04:44.282Z,24.54
2019-04-01T10:07:48.021Z,24.54
2019-04-01T10:10:51.686Z,24.56
2019-04-01T10:13:55.224Z,24.56
2019-04-01T10:16:58.702Z,24.59
2019-04-01T10:20:02.353Z,24.59
2019-04-01T10:23:06.919Z,24.60
2019-04-01T10:26:10.437Z,24.62
2019-04-01T10:29:13.939Z,24.63
2019-04-01T10:32:17.529Z,24.65
2019-04-01T10:35:21.047Z,24.66
2019-04-01T10:38:24.634Z,24.20
2019-04-01T10:41:30.181Z,23.92
2019-04-01T10:44:33.742Z,23.82
2019-04-01T10:47:38.390Z,23.76
2019-04-01T10:50:41.915Z,23.72
2019-04-01T10:53:45.450Z,23.67
2019-04-01T10:56:48.959Z,23.67
2019-04-01T10:59:52.470Z,23.63
2019-04-01T11:02:55.994Z,23.61
2019-04-01T11:05:59.657Z,23.59
2019-04-01T11:09:04.782Z,23.60
2019-04-01T11:12:08.252Z,23.60
2019-04-01T11:15:15.317Z,23.55
2019-04-01T11:18:17.087Z,23.57
2019-04-01T11:21:22.669Z,23.59
2019-04-01T11:24:26.143Z,23.57
2019-04-01T11:27:29.642Z,23.57
2019-04-01T11:30:36.719Z,23.57
2019-04-01T11:33:38.618Z,23.59
2019-04-01T11:36:43.190Z,23.63
2019-04-01T11:39:46.877Z,23.61
2019-04-01T11:42:50.495Z,23.59
2019-04-01T11:45:54.144Z,23.66
2019-04-01T11:48:57.779Z,23.71
2019-04-01T11:52:01.379Z,23.74
2019-04-01T11:55:06.604Z,23.77
2019-04-01T11:58:10.516Z,23.81
2019-04-01T12:01:14.214Z,23.86
2019-04-01T12:04:17.807Z,23.86
2019-04-01T12:07:21.350Z,23.87
2019-04-01T12:10:24.813Z,23.91
2019-04-01T12:13:28.995Z,23.95
2019-04-01T12:16:32.843Z,23.96
2019-04-01T12:19:36.344Z,23.97
2019-04-01T12:22:40.878Z,24.00
2019-04-01T12:25:45.205Z,24.01
2019-04-01T12:28:48.715Z,24.02
2019-04-01T12:31:52.211Z,24.02
2019-04-01T12:34:55.679Z,24.05
2019-04-01T12:37:59.211Z,24.06
2019-04-01T12:41:02.701Z,24.09
2019-04-01T12:44:06.201Z,24.10
2019-04-01T12:47:09.824Z,24.12
2019-04-01T12:50:14.418Z,24.14
2019-04-01T12:53:18.039Z,24.16
2019-04-01T12:56:21.631Z,24.17
2019-04-01T12:59:25.133Z,24.19
2019-04-01T13:02:28.617Z,24.20
2019-04-01T13:05:32.230Z,24.22
2019-04-01T13:08:35.852Z,24.24
2019-04-01T13:11:39.337Z,24.24
2019-04-01T13:14:43.508Z,24.25
2019-04-01T13:17:47.399Z,24.27
2019-04-01T13:20:51.851Z,24.27
2019-04-01T13:23:55.857Z,24.30
2019-04-01T13:27:00.301Z,24.32
2019-04-01T13:30:04.225Z,24.34
2019-04-01T13:33:07.737Z,24.34
2019-04-01T13:36:11.269Z,24.37
2019-04-01T13:39:14.744Z,24.40
2019-04-01T13:42:18.317Z,24.42
2019-04-01T13:45:21.995Z,24.43
2019-04-01T13:48:25.449Z,24.47
2019-04-01T13:51:30.242Z,24.49
2019-04-01T13:54:34.903Z,24.51
2019-04-01T13:57:39.440Z,24.52
2019-04-01T14:00:42.956Z,24.55
2019-04-01T14:03:46.547Z,24.57
2019-04-01T14:06:50.174Z,24.58
2019-04-01T14:09:55.254Z,24.61
2019-04-01T14:12:59.002Z,24.62
2019-04-01T14:16:02.473Z,24.65
2019-04-01T14:19:06.047Z,24.66
2019-04-01T14:22:09.508Z,24.66
2019-04-01T14:25:13.989Z,24.68
2019-04-01T14:28:17.783Z,24.71
2019-04-01T14:31:22.005Z,24.73
2019-04-01T14:34:26.680Z,24.73
2019-04-01T14:37:30.248Z,24.75
2019-04-01T14:40:33.769Z,24.79
2019-04-01T14:43:37.271Z,24.79
2019-04-01T14:46:40.993Z,24.80
2019-04-01T14:49:44.483Z,24.81
2019-04-01T14:52:49.005Z,24.83
2019-04-01T14:55:52.510Z,24.86
2019-04-01T14:58:56.010Z,24.90
2019-04-01T15:02:01.999Z,24.89
2019-04-01T15:05:05.179Z,24.92
2019-04-01T15:08:08.794Z,24.94
2019-04-01T15:11:14.411Z,24.95
2019-04-01T15:14:18.139Z,24.96
2019-04-01T15:17:21.773Z,25.00
2019-04-01T15:20:26.423Z,25.02
2019-04-01T15:23:31.091Z,25.04
2019-04-01T15:26:34.783Z,25.02
2019-04-01T15:29:38.400Z,25.02
2019-04-01T15:32:41.890Z,25.03
2019-04-01T15:35:45.390Z,25.05
2019-04-01T15:38:48.899Z,25.02
2019-04-01T15:41:52.423Z,25.06
2019-04-01T15:44:55.902Z,25.08
2019-04-01T15:47:59.408Z,25.06
2019-04-01T15:51:04.028Z,25.10
2019-04-01T15:54:07.642Z,25.06
2019-04-01T15:57:11.119Z,25.07
2019-04-01T16:00:14.615Z,25.06
2019-04-01T16:03:18.150Z,25.06
2019-04-01T16:06:22.647Z,25.04
2019-04-01T16:09:26.252Z,25.05
2019-04-01T16:12:29.862Z,25.10
2019-04-01T16:15:33.570Z,25.13
2019-04-01T16:18:37.079Z,25.11
2019-04-01T16:21:40.570Z,25.09
2019-04-01T16:24:44.857Z,25.10
2019-04-01T16:27:49.648Z,25.04
2019-04-01T16:30:53.132Z,25.04
2019-04-01T16:33:56.617Z,25.02
2019-04-01T16:37:00.143Z,24.99
2019-04-01T16:40:05.938Z,24.96
2019-04-01T16:43:09.807Z,24.95
2019-04-01T16:46:13.394Z,24.89
2019-04-01T16:49:16.994Z,24.84
2019-04-01T16:52:20.500Z,24.82
2019-04-01T16:55:24.001Z,24.78
2019-04-01T16:58:28.546Z,24.79
2019-04-01T17:01:32.020Z,24.74
2019-04-01T17:04:35.640Z,24.74
2019-04-01T17:07:41.216Z,24.70
2019-04-01T17:10:44.980Z,24.68
2019-04-01T17:13:48.487Z,24.67
2019-04-01T17:16:51.986Z,24.64
2019-04-01T17:19:55.638Z,24.63
2019-04-01T17:23:00.173Z,24.61
2019-04-01T17:26:04.521Z,24.56
2019-04-01T17:29:08.030Z,24.57
2019-04-01T17:32:11.531Z,24.52
2019-04-01T17:35:15.053Z,24.52
2019-04-01T17:38:18.541Z,24.46
2019-04-01T17:41:22.050Z,24.48
2019-04-01T17:44:25.662Z,24.46
2019-04-01T17:47:29.168Z,24.43
2019-04-01T17:50:32.908Z,24.42
2019-04-01T17:53:36.470Z,24.41
2019-04-01T17:56:40.058Z,24.38
2019-04-01T17:59:44.235Z,24.35
2019-04-01T18:02:47.988Z,24.36
2019-04-01T18:05:51.486Z,24.34
2019-04-01T18:08:54.984Z,24.30
2019-04-01T18:11:58.482Z,24.29
2019-04-01T18:15:02.058Z,24.27
2019-04-01T18:18:05.689Z,24.28
2019-04-01T18:21:09.198Z,24.22
2019-04-01T18:24:14.748Z,24.20
2019-04-01T18:27:19.285Z,24.19
2019-04-01T18:30:23.801Z,24.20
2019-04-01T18:33:27.283Z,24.17
2019-04-01T18:36:30.801Z,24.14
2019-04-01T18:39:47.424Z,24.12
2019-04-01T18:42:40.457Z,24.10
2019-04-01T18:45:43.971Z,24.12
2019-04-01T18:48:48.237Z,24.10
2019-04-01T18:51:51.999Z,24.06
2019-04-01T18:54:56.514Z,24.05
2019-04-01T18:58:07.013Z,24.01
2019-04-01T19:01:10.469Z,24.05
2019-04-01T19:04:14.093Z,24.01
2019-04-01T19:07:17.518Z,24.02
2019-04-01T19:10:21.091Z,24.06
2019-04-01T19:13:24.694Z,24.10
2019-04-01T19:16:29.319Z,24.12
2019-04-01T19:19:32.866Z,24.11
2019-04-01T19:22:36.411Z,24.10
2019-04-01T19:25:39.933Z,24.11
2019-04-01T19:28:43.416Z,24.13
2019-04-01T19:31:47.027Z,24.13
2019-04-01T19:34:50.632Z,24.14
2019-04-01T19:37:54.128Z,24.16
2019-04-01T19:40:59.799Z,24.17
2019-04-01T19:44:02.979Z,24.18
2019-04-01T19:47:07.037Z,24.19
2019-04-01T19:50:11.840Z,24.19
2019-04-01T19:53:15.275Z,24.18
2019-04-01T19:56:18.862Z,24.17
2019-04-01T19:59:25.830Z,24.18
2019-04-01T20:02:27.844Z,24.17
2019-04-01T20:05:32.596Z,24.18
2019-04-01T20:08:37.015Z,24.17
2019-04-01T20:11:40.759Z,24.18
2019-04-01T20:14:44.326Z,24.17
2019-04-01T20:17:48.045Z,24.15
2019-04-01T20:20:51.760Z,24.16
2019-04-01T20:24:02.408Z,24.16
2019-04-01T20:27:05.907Z,24.14
2019-04-01T20:30:09.867Z,24.06
2019-04-01T20:33:18.032Z,24.05
2019-04-01T20:36:28.378Z,24.03
2019-04-01T20:39:25.279Z,24.03
2019-04-01T20:42:29.262Z,24.03
2019-04-01T20:45:33.786Z,24.02
2019-04-01T20:48:37.299Z,24.01
2019-04-01T20:51:40.813Z,24.00
2019-04-01T20:54:46.327Z,23.97
2019-04-01T20:57:49.831Z,23.97
2019-04-01T21:00:53.333Z,23.96
2019-04-01T21:03:58.818Z,23.94
2019-04-01T21:07:02.606Z,23.95
2019-04-01T21:10:06.643Z,23.93
2019-04-01T21:13:10.201Z,23.94
2019-04-01T21:16:13.702Z,23.93
2019-04-01T21:19:17.224Z,23.92
2019-04-01T21:22:21.727Z,23.90
2019-04-01T21:25:25.239Z,23.91
2019-04-01T21:28:28.718Z,23.88
2019-04-01T21:31:33.255Z,23.85
2019-04-01T21:34:36.742Z,23.86
2019-04-01T21:37:41.189Z,23.85
2019-04-01T21:40:44.620Z,23.84
2019-04-01T21:43:49.001Z,23.83
2019-04-01T21:46:52.578Z,23.81
2019-04-01T21:49:57.127Z,23.80
2019-04-01T21:53:02.017Z,23.81
2019-04-01T21:56:06.782Z,23.79
2019-04-01T21:59:10.287Z,23.78
2019-04-01T22:02:14.257Z,23.78
2019-04-01T22:05:18.847Z,23.77
2019-04-01T22:08:22.331Z,23.78
2019-04-01T22:11:25.832Z,23.75
2019-04-01T22:14:29.328Z,23.73
2019-04-01T22:17:32.927Z,23.71
2019-04-01T22:20:36.558Z,23.73
2019-04-01T22:23:40.007Z,23.68
2019-04-01T22:26:43.651Z,23.70
2019-04-01T22:29:47.084Z,23.68
2019-04-01T22:32:50.536Z,23.67
2019-04-01T22:35:54.042Z,23.67
2019-04-01T22:38:57.460Z,23.64
2019-04-01T22:42:00.907Z,23.67
2019-04-01T22:45:06.388Z,23.64
2019-04-01T22:48:09.896Z,23.65
2019-04-01T22:51:13.491Z,23.64
2019-04-01T22:54:17.174Z,23.63
2019-04-01T22:57:20.738Z,23.62
2019-04-01T23:00:24.237Z,23.59
2019-04-01T23:06:32.227Z,23.58
2019-04-01T23:09:35.694Z,23.56
2019-04-01T23:12:41.121Z,23.57
2019-04-01T23:15:44.573Z,23.55
2019-04-01T23:18:48.064Z,23.55
2019-04-01T23:21:52.595Z,23.54
2019-04-01T23:24:56.408Z,23.55
2019-04-01T23:28:01.023Z,23.52
2019-04-01T23:31:04.551Z,23.51
2019-04-01T23:34:07.988Z,23.51
2019-04-01T23:37:11.435Z,23.52
2019-04-01T23:40:15.048Z,23.51
2019-04-01T23:43:19.566Z,23.50
2019-04-01T23:46:23.081Z,23.49
2019-04-01T23:49:26.566Z,23.49
2019-04-01T23:52:30.065Z,23.48
2019-04-01T23:55:33.934Z,23.46
2019-04-01T23:58:39.530Z,23.45
